Time;durP1;ratioP1;P1;durP2;ratioP2;P2;SDS_P1;SDS_P2;PMS_P1;PMS_P2;Temp;Humidity;BMP_temperature;BMP_pressure;BME280_temperature;BME280_humidity;BME280_pressure;Samples;Min_cycle;Max_cycle;Signal;HPM_P1;HPM_P2
2022/05/13 00:00:16;;;;;;;11.68;6.45;;;17.90;55.80;;;;;;5098177;28;20501;-76
2022/05/13 00:02:43;;;;;;;11.90;6.70;;;17.80;55.90;;;;;;5099319;28;20046;-72
2022/05/13 00:05:11;;;;;;;10.10;6.60;;;17.80;56.00;;;;;;5098008;28;20456;-76
2022/05/13 00:07:37;;;;;;;11.40;6.50;;;17.70;56.10;;;;;;5097122;28;20097;-77
2022/05/13 00:10:07;;;;;;;;;;;17.70;55.70;;;;;;5116627;28;20504;-72
2022/05/13 00:12:53;;;;;;;10.73;5.90;;;17.60;55.10;;;;;;5098494;28;19916;-76
2022/05/13 00:15:24;;;;;;;9.43;5.90;;;17.60;55.40;;;;;;5097549;28;20036;-72
2022/05/13 00:17:53;;;;;;;11.60;6.22;;;17.50;55.50;;;;;;5081353;28;20084;-76
2022/05/13 00:20:39;;;;;;;10.18;5.80;;;17.40;56.00;;;;;;5097894;28;20035;-72
2022/05/13 00:23:12;;;;;;;10.52;5.65;;;17.30;56.10;;;;;;5096922;28;20038;-72
2022/05/13 00:25:39;;;;;;;10.18;5.57;;;17.30;56.30;;;;;;5115556;28;20051;-72
2022/05/13 00:28:07;;;;;;;10.68;6.00;;;17.30;56.00;;;;;;5116205;28;20464;-76
2022/05/13 00:30:50;;;;;;;10.20;6.05;;;17.20;56.10;;;;;;5097289;28;20077;-76
2022/05/13 00:33:19;;;;;;;10.10;5.95;;;17.10;56.20;;;;;;5098088;28;20514;-72
2022/05/13 00:35:45;;;;;;;8.60;5.72;;;17.10;56.40;;;;;;5097290;28;20040;-72
2022/05/13 00:38:11;;;;;;;;;;;17.10;56.00;;;;;;5115928;28;20114;-75
2022/05/13 00:40:38;;;;;;;11.38;6.55;;;17.00;55.70;;;;;;5080276;28;19915;-76
2022/05/13 00:43:09;;;;;;;9.90;5.72;;;16.90;56.50;;;;;;5097597;28;20031;-73
2022/05/13 00:45:35;;;;;;;10.27;6.13;;;16.90;56.90;;;;;;5115227;28;20044;-76
2022/05/13 00:48:02;;;;;;;10.60;5.85;;;16.90;57.10;;;;;;5097131;28;20092;-72
2022/05/13 00:50:47;;;;;;;12.38;6.30;;;16.90;57.20;;;;;;5096520;28;20039;-76
2022/05/13 00:53:13;;;;;;;10.13;5.70;;;16.90;57.30;;;;;;5096563;28;20050;-76
2022/05/13 00:55:45;;;;;;;12.18;5.88;;;16.90;57.50;;;;;;5096752;28;20107;-76
2022/05/13 00:58:17;;;;;;;12.68;6.22;;;16.90;57.70;;;;;;5097763;28;20549;-76
2022/05/13 01:00:44;;;;;;;11.82;6.53;;;16.80;57.50;;;;;;5080032;28;20046;-72
2022/05/13 01:03:14;;;;;;;10.32;6.13;;;16.80;57.40;;;;;;5097261;28;20037;-72
2022/05/13 01:05:43;;;;;;;12.88;6.10;;;16.80;57.20;;;;;;5096638;28;20042;-76
2022/05/13 01:08:11;;;;;;;11.88;6.90;;;16.80;57.70;;;;;;5114494;28;20028;-76
2022/05/13 01:10:39;;;;;;;10.00;5.97;;;16.70;57.70;;;;;;5096714;28;20492;-76
2022/05/13 01:13:11;;;;;;;10.18;6.47;;;16.70;57.90;;;;;;5097032;28;20040;-76
2022/05/13 01:15:58;;;;;;;10.10;6.05;;;16.70;58.30;;;;;;5096694;28;20028;-72
2022/05/13 01:18:43;;;;;;;10.47;6.27;;;16.70;58.20;;;;;;5079984;28;20111;-76
2022/05/13 01:21:32;;;;;;;13.32;5.97;;;16.70;58.10;;;;;;5079171;28;20434;-72
2022/05/13 01:23:58;;;;;;;8.95;5.60;;;16.70;57.90;;;;;;5095913;28;20058;-76
2022/05/13 01:26:29;;;;;;;10.25;5.72;;;16.60;58.00;;;;;;5114448;28;20073;-72
2022/05/13 01:28:57;;;;;;;9.95;5.82;;;16.60;58.10;;;;;;5097320;28;20031;-76
2022/05/13 01:31:45;;;;;;;9.80;5.70;;;16.50;57.60;;;;;;5114335;28;20380;-76
2022/05/13 01:34:13;;;;;;;11.35;5.78;;;16.50;57.60;;;;;;5097099;28;20039;-76
2022/05/13 01:36:41;;;;;;;9.25;5.10;;;16.50;57.90;;;;;;5079176;28;20037;-76
2022/05/13 01:39:08;;;;;;;10.25;5.85;;;16.50;57.70;;;;;;5095568;28;20484;-76
2022/05/13 01:41:34;;;;;;;8.75;5.43;;;16.40;57.30;;;;;;5095294;28;20149;-76
2022/05/13 01:44:06;;;;;;;10.00;5.97;;;16.40;57.50;;;;;;5079339;28;20127;-72
2022/05/13 01:46:38;;;;;;;9.23;5.30;;;16.40;58.20;;;;;;5114159;28;20380;-72
2022/05/13 01:49:04;;;;;;;10.90;5.13;;;16.30;58.30;;;;;;5114244;28;20092;-72
2022/05/13 01:51:30;;;;;;;;;;;16.30;58.50;;;;;;5096265;28;20039;-76
2022/05/13 01:53:56;;;;;;;8.57;5.45;;;16.20;57.80;;;;;;5095132;28;19920;-72
2022/05/13 01:56:23;;;;;;;9.93;5.15;;;16.20;58.30;;;;;;5078645;28;20038;-73
2022/05/13 01:58:52;;;;;;;12.38;5.22;;;16.20;58.40;;;;;;5095254;28;20502;-73
2022/05/13 02:01:18;;;;;;;9.52;5.07;;;16.10;58.70;;;;;;5113814;28;20071;-72
2022/05/13 02:03:44;;;;;;;;;;;16.10;58.20;;;;;;5114512;28;20069;-75
2022/05/13 02:06:30;;;;;;;12.65;5.10;;;16.10;58.80;;;;;;5113747;28;19915;-72
2022/05/13 02:08:59;;;;;;;9.13;5.97;;;16.10;58.50;;;;;;5094928;28;20039;-72
2022/05/13 02:11:28;;;;;;;12.35;6.00;;;16.00;58.60;;;;;;5095254;28;20524;-72
2022/05/13 02:13:55;;;;;;;9.68;5.93;;;15.90;59.00;;;;;;5095773;28;20032;-76
2022/05/13 02:16:21;;;;;;;8.40;5.35;;;15.90;59.00;;;;;;5095296;28;20035;-76
2022/05/13 02:18:48;;;;;;;12.32;6.28;;;15.90;59.10;;;;;;5095659;28;20028;-72
2022/05/13 02:21:16;;;;;;;9.85;6.18;;;15.90;59.10;;;;;;5095419;28;20032;-72
2022/05/13 02:23:42;;;;;;;9.10;5.63;;;15.80;59.10;;;;;;5094843;28;20424;-76
2022/05/13 02:26:13;;;;;;;9.77;5.43;;;15.80;59.40;;;;;;5113512;28;20051;-72
2022/05/13 02:28:40;;;;;;;11.52;6.05;;;15.80;59.40;;;;;;5095447;28;20046;-72
2022/05/13 02:31:07;;;;;;;11.25;4.93;;;15.80;58.70;;;;;;5078062;28;20063;-76
2022/05/13 02:33:34;;;;;;;10.52;5.55;;;15.80;59.00;;;;;;5094857;28;20040;-76
2022/05/13 02:36:00;;;;;;;11.07;5.60;;;15.80;59.20;;;;;;5094839;28;20106;-73
2022/05/13 02:38:27;;;;;;;13.00;5.80;;;15.70;59.40;;;;;;5095258;28;20081;-72
2022/05/13 02:43:58;;;;;;;8.18;4.57;;;15.70;59.60;;;;;;5113391;28;20116;-76
2022/05/13 02:46:43;;;;;;;12.52;5.65;;;15.70;59.30;;;;;;5113026;28;20035;-72
2022/05/13 02:49:12;;;;;;;14.38;5.70;;;15.70;59.40;;;;;;5094982;28;20126;-76
2022/05/13 02:51:39;;;;;;;8.10;4.70;;;15.60;59.30;;;;;;5113193;28;20582;-76
2022/05/13 02:54:07;;;;;;;8.07;4.93;;;15.60;59.30;;;;;;5094216;28;20039;-72
2022/05/13 02:56:34;;;;;;;8.50;5.50;;;15.60;59.10;;;;;;5077776;28;20506;-72
2022/05/13 02:59:00;;;;;;;9.10;4.85;;;15.60;59.20;;;;;;5095015;28;20063;-73
2022/05/13 03:01:27;;;;;;;10.52;5.13;;;15.60;58.70;;;;;;5094709;28;20031;-76
2022/05/13 03:03:53;;;;;;;11.27;4.85;;;15.50;59.40;;;;;;5094806;28;20592;-72
2022/05/13 03:06:21;;;;;;;12.90;5.45;;;15.50;59.60;;;;;;5112793;28;20032;-76
2022/05/13 03:08:54;;;;;;;9.30;4.68;;;15.50;59.70;;;;;;5077412;28;20510;-76
2022/05/13 03:11:21;;;;;;;10.00;5.10;;;15.40;59.60;;;;;;5094211;28;20080;-76
2022/05/13 03:13:57;;;;;;;12.68;5.90;;;15.40;59.60;;;;;;5094806;28;20031;-72
2022/05/13 03:16:30;;;;;;;8.75;5.45;;;15.40;59.70;;;;;;5109237;28;20047;-76
2022/05/13 03:19:02;;;;;;;19.10;6.03;;;15.40;59.10;;;;;;5094864;28;20036;-72
2022/05/13 03:21:28;;;;;;;14.88;6.05;;;15.40;59.80;;;;;;5112539;28;20038;-76
2022/05/13 03:23:55;;;;;;;13.75;6.32;;;15.40;59.90;;;;;;5094341;28;20040;-76
2022/05/13 03:26:22;;;;;;;9.02;5.60;;;15.40;59.90;;;;;;5094093;28;20434;-72
2022/05/13 03:28:49;;;;;;;10.52;6.00;;;15.40;59.90;;;;;;5094737;28;20035;-76
2022/05/13 03:31:15;;;;;;;16.55;6.30;;;15.40;59.80;;;;;;5112412;28;20436;-76
2022/05/13 03:33:41;;;;;;;;;;;15.40;60.00;;;;;;5113382;28;20036;-73
2022/05/13 03:36:10;;;;;;;12.63;6.20;;;15.40;59.30;;;;;;5094229;28;19951;-76
2022/05/13 03:38:36;;;;;;;14.02;6.13;;;15.30;59.60;;;;;;5077894;28;20030;-76
2022/05/13 03:41:02;;;;;;;8.02;5.15;;;15.30;59.90;;;;;;5111471;28;20484;-72
2022/05/13 03:43:28;;;;;;;;;;;15.30;59.70;;;;;;5113281;28;20040;-72
2022/05/13 03:45:54;;;;;;;10.40;5.25;;;15.20;59.20;;;;;;5077145;28;20394;-76
2022/05/13 03:48:20;;;;;;;9.27;4.93;;;15.20;59.60;;;;;;5094411;28;20096;-73
2022/05/13 03:50:47;;;;;;;9.93;5.50;;;15.20;59.60;;;;;;5077149;28;20060;-76
2022/05/13 03:53:14;;;;;;;11.95;5.80;;;15.20;59.60;;;;;;5094661;28;20456;-76
2022/05/13 03:55:41;;;;;;;13.52;6.28;;;15.20;59.80;;;;;;5091394;28;20052;-75
2022/05/13 03:58:07;;;;;;;9.50;5.25;;;15.20;59.60;;;;;;5094709;28;20055;-75
2022/05/13 04:00:34;;;;;;;12.30;6.13;;;15.20;60.20;;;;;;5094129;28;20039;-76
2022/05/13 04:03:04;;;;;;;9.68;5.57;;;15.20;60.30;;;;;;5113009;28;20031;-72
2022/05/13 04:11:00;;;;;;;8.85;5.15;;;15.20;59.60;;;;;;5095427;28;20046;-72
2022/05/13 04:16:11;;;;;;;12.43;4.47;;;15.30;60.20;;;;;;5096460;28;20115;-76
2022/05/13 04:18:39;;;;;;;;;;;15.30;60.20;;;;;;5094573;28;20040;-77
2022/05/13 04:21:12;;;;;;;9.57;5.10;;;15.30;59.40;;;;;;5093881;28;20006;-72
2022/05/13 04:23:45;;;;;;;12.25;4.60;;;15.30;60.10;;;;;;5096995;28;20040;-72
2022/05/13 04:26:16;;;;;;;10.05;4.97;;;15.30;60.20;;;;;;5096443;28;20471;-76
2022/05/13 04:28:45;;;;;;;25.45;6.47;;;15.40;60.10;;;;;;5097850;28;20054;-72
2022/05/13 04:31:14;;;;;;;10.25;4.32;;;15.40;60.20;;;;;;5080218;28;20074;-72
2022/05/13 04:33:41;;;;;;;8.73;4.68;;;15.50;60.20;;;;;;5097704;28;20136;-76
2022/05/13 04:36:23;;;;;;;13.85;4.88;;;15.50;60.30;;;;;;5097348;28;20043;-73
2022/05/13 04:38:52;;;;;;;10.70;4.45;;;15.60;60.30;;;;;;5098695;28;20400;-75
2022/05/13 04:44:06;;;;;;;9.15;4.97;;;15.60;60.60;;;;;;5115639;28;20446;-76
2022/05/13 04:46:36;;;;;;;8.70;4.30;;;15.70;60.60;;;;;;5097017;28;20035;-76
2022/05/13 04:49:03;;;;;;;8.43;4.70;;;15.80;60.70;;;;;;5097148;28;20480;-77
2022/05/13 04:51:29;;;;;;;15.10;5.15;;;15.80;60.80;;;;;;5080103;28;20675;-76
2022/05/13 04:54:00;;;;;;;12.50;4.97;;;15.80;60.70;;;;;;5097405;28;20036;-72
2022/05/13 04:56:28;;;;;;;8.05;4.53;;;15.90;60.90;;;;;;5096580;28;20035;-76
2022/05/13 04:58:54;;;;;;;14.85;5.18;;;16.00;60.70;;;;;;5096690;28;20126;-72
2022/05/13 05:01:33;;;;;;;;;;;16.10;60.60;;;;;;5097383;28;20032;-72
2022/05/13 05:03:59;;;;;;;13.02;4.80;;;16.10;60.00;;;;;;5097533;28;20272;-72
2022/05/13 05:06:25;;;;;;;11.00;5.22;;;16.20;60.60;;;;;;5096656;28;20072;-75
2022/05/13 05:09:00;;;;;;;10.98;4.55;;;16.30;60.30;;;;;;5097011;28;20047;-72
2022/05/13 05:11:28;;;;;;;9.00;5.00;;;16.40;61.20;;;;;;5096458;28;20046;-76
2022/05/13 05:13:54;;;;;;;15.30;5.35;;;16.40;61.20;;;;;;5096860;28;20028;-76
2022/05/13 05:16:22;;;;;;;13.90;5.57;;;16.50;61.60;;;;;;5079572;28;20146;-76
2022/05/13 05:18:49;;;;;;;9.57;5.38;;;16.60;61.40;;;;;;5114991;28;20039;-76
2022/05/13 05:21:15;;;;;;;12.38;5.43;;;16.70;61.70;;;;;;5096558;28;20453;-76
2022/05/13 05:23:43;;;;;;;;;;;16.80;61.90;;;;;;5080397;28;20074;-75
2022/05/13 05:26:12;;;;;;;12.55;5.97;;;16.90;60.70;;;;;;5113625;28;19920;-72
2022/05/13 05:28:41;;;;;;;10.68;6.22;;;16.90;61.30;;;;;;5114818;28;20047;-72
2022/05/13 05:31:09;;;;;;;11.40;5.93;;;17.00;61.40;;;;;;5114478;28;20039;-72
2022/05/13 05:33:35;;;;;;;16.80;6.80;;;17.20;61.50;;;;;;5096346;28;20039;-76
2022/05/13 05:36:05;;;;;;;18.30;7.90;;;17.30;61.50;;;;;;5096238;28;20043;-76
2022/05/13 05:38:31;;;;;;;16.90;7.05;;;17.30;61.70;;;;;;5096386;28;20040;-71
2022/05/13 05:40:59;;;;;;;;;;;17.50;61.50;;;;;;5095983;28;20020;-72
2022/05/13 05:43:26;;;;;;;12.32;6.20;;;17.60;60.30;;;;;;5096365;28;19916;-72
2022/05/13 05:45:58;;;;;;;11.65;6.88;;;17.70;60.70;;;;;;5114063;28;20024;-72
2022/05/13 05:48:24;;;;;;;15.75;6.90;;;17.80;61.00;;;;;;5097100;28;20035;-73
2022/05/13 05:51:09;;;;;;;12.73;7.00;;;18.00;61.10;;;;;;5113645;28;20489;-76
2022/05/13 05:59:08;;;;;;;12.55;7.95;;;18.30;60.80;;;;;;5114148;28;20093;-72
2022/05/13 06:01:34;;;;;;;13.00;7.60;;;18.40;60.90;;;;;;5095653;28;20051;-76
2022/05/13 06:04:03;;;;;;;14.38;7.82;;;18.40;60.10;;;;;;5095922;28;20501;-75
2022/05/13 06:06:30;;;;;;;11.48;7.05;;;18.60;60.60;;;;;;5095809;28;20032;-76
2022/05/13 06:08:58;;;;;;;12.30;7.13;;;18.60;59.60;;;;;;5095941;28;20032;-72
2022/05/13 06:11:25;;;;;;;9.48;6.47;;;18.80;60.00;;;;;;5094505;28;20036;-76
2022/05/13 06:14:10;;;;;;;14.57;6.93;;;18.90;60.00;;;;;;5095794;28;20035;-71
2022/05/13 06:16:37;;;;;;;11.15;6.20;;;19.00;59.70;;;;;;5113646;28;20031;-72
2022/05/13 06:19:03;;;;;;;15.63;6.72;;;19.10;59.50;;;;;;5095741;28;20031;-75
2022/05/13 06:21:33;;;;;;;11.30;6.68;;;19.20;59.40;;;;;;5095289;28;20032;-74
2022/05/13 06:23:59;;;;;;;13.85;6.70;;;19.30;59.20;;;;;;5095824;28;20446;-76
2022/05/13 06:26:26;;;;;;;16.98;7.68;;;19.50;58.50;;;;;;5112641;28;20130;-72
2022/05/13 06:28:53;;;;;;;12.23;6.78;;;19.60;58.70;;;;;;5095500;28;20499;-73
2022/05/13 06:31:19;;;;;;;20.38;7.22;;;19.70;58.40;;;;;;5077964;28;20035;-76
2022/05/13 06:33:53;;;;;;;14.38;6.03;;;19.90;58.70;;;;;;5095429;28;20038;-76
2022/05/13 06:36:29;;;;;;;10.18;6.35;;;20.00;58.30;;;;;;5078095;28;20039;-72
2022/05/13 06:38:56;;;;;;;10.23;5.72;;;20.20;58.40;;;;;;5095339;28;20040;-72
2022/05/13 06:41:24;;;;;;;16.13;6.40;;;20.40;57.80;;;;;;5094095;28;20480;-76
2022/05/13 06:43:53;;;;;;;19.00;6.45;;;20.60;57.60;;;;;;5113499;28;20045;-73
2022/05/13 06:46:20;;;;;;;22.35;6.38;;;20.70;57.40;;;;;;5112399;28;20066;-76
2022/05/13 06:48:49;;;;;;;19.42;6.93;;;20.90;56.90;;;;;;5113380;28;20039;-75
2022/05/13 06:51:17;;;;;;;12.52;6.70;;;21.10;56.50;;;;;;5094852;28;20038;-76
2022/05/13 06:53:43;;;;;;;10.32;5.97;;;21.30;56.00;;;;;;5095116;28;20039;-72
2022/05/13 06:56:17;;;;;;;30.67;7.55;;;21.50;55.70;;;;;;5093599;28;20086;-76
2022/05/13 06:58:45;;;;;;;11.77;6.32;;;21.80;55.00;;;;;;5095047;28;20039;-72
2022/05/13 07:01:11;;;;;;;12.90;6.05;;;22.00;54.00;;;;;;5112819;28;20035;-73
2022/05/13 07:03:52;;;;;;;14.85;7.00;;;22.20;54.00;;;;;;5095002;28;20035;-76
2022/05/13 07:06:19;;;;;;;10.57;6.07;;;22.30;53.60;;;;;;5094359;28;20036;-72
2022/05/13 07:08:46;;;;;;;12.15;6.70;;;22.60;53.20;;;;;;5113433;28;20032;-76
2022/05/13 07:11:13;;;;;;;9.52;6.15;;;22.80;53.00;;;;;;5091343;28;20050;-76
2022/05/13 07:13:51;;;;;;;10.27;6.15;;;23.00;52.80;;;;;;5094990;28;20039;-73
2022/05/13 07:16:17;;;;;;;11.85;6.10;;;23.20;52.60;;;;;;5095310;28;20468;-73
2022/05/13 07:18:46;;;;;;;;;;;23.50;52.10;;;;;;5113551;28;20470;-72
2022/05/13 07:21:14;;;;;;;9.15;5.60;;;23.60;52.50;;;;;;5078074;28;19963;-73
2022/05/13 07:23:40;;;;;;;10.13;5.57;;;23.70;51.30;;;;;;5094587;28;20028;-77
2022/05/13 07:26:06;;;;;;;16.90;5.47;;;23.80;51.60;;;;;;5076384;28;20101;-77
2022/05/13 07:28:34;;;;;;;10.35;5.03;;;23.80;51.30;;;;;;5094369;28;20038;-72
2022/05/13 07:31:01;;;;;;;9.63;4.82;;;23.80;50.50;;;;;;5094214;28;20028;-75
2022/05/13 07:36:16;;;;;;;11.60;4.53;;;23.90;49.00;;;;;;5095408;28;20482;-72
2022/05/13 07:41:16;;;;;;;10.00;4.45;;;24.00;49.20;;;;;;5094549;28;20067;-71
2022/05/13 07:41:28;;;;;;;26.27;4.78;;;24.10;49.20;;;;;;5111305;28;20591;-72
2022/05/13 07:43:54;;;;;;;;;;;24.20;48.70;;;;;;5113326;28;20073;-73
2022/05/13 07:46:20;;;;;;;10.90;4.43;;;24.30;49.20;;;;;;5093995;28;20364;-76
2022/05/13 07:48:46;;;;;;;12.40;4.50;;;24.40;48.40;;;;;;5111823;28;20028;-76
2022/05/13 07:51:15;;;;;;;;;;;24.40;48.00;;;;;;5112939;28;20027;-77
2022/05/13 07:53:41;;;;;;;14.27;4.40;;;24.50;48.50;;;;;;5094465;28;19916;-77
2022/05/13 07:56:08;;;;;;;8.27;5.07;;;24.50;47.40;;;;;;5094042;28;20055;-71
2022/05/13 07:58:34;;;;;;;8.32;4.38;;;24.70;47.00;;;;;;5095913;28;20028;-72
2022/05/13 08:01:00;;;;;;;9.57;4.60;;;24.70;46.50;;;;;;5097977;28;20036;-77
2022/05/13 08:03:27;;;;;;;9.20;4.10;;;24.80;46.70;;;;;;5116250;28;20024;-72
2022/05/13 08:05:57;;;;;;;10.15;3.70;;;24.90;46.50;;;;;;5116061;28;20023;-72
2022/05/13 08:08:46;;;;;;;7.38;3.40;;;25.00;45.10;;;;;;5098805;28;20039;-72
2022/05/13 08:11:14;;;;;;;15.23;4.03;;;25.20;45.30;;;;;;5097910;28;20092;-72
2022/05/13 08:13:41;;;;;;;9.70;4.40;;;25.40;44.90;;;;;;5115493;28;20486;-72
2022/05/13 08:16:29;;;;;;;7.63;3.15;;;25.60;43.70;;;;;;5097746;28;20123;-73
2022/05/13 08:18:57;;;;;;;10.68;3.42;;;26.00;44.00;;;;;;5098233;28;20054;-72
2022/05/13 08:21:24;;;;;;;8.23;3.75;;;26.40;42.70;;;;;;5097290;28;20027;-77
2022/05/13 08:23:52;;;;;;;8.82;3.60;;;26.90;41.70;;;;;;5097908;28;20115;-72
2022/05/13 08:26:34;;;;;;;8.10;3.25;;;27.40;41.40;;;;;;5093841;28;20047;-77
2022/05/13 08:29:01;;;;;;;8.50;4.40;;;27.90;40.80;;;;;;5094382;28;20517;-78
2022/05/13 08:31:29;;;;;;;15.85;4.85;;;28.50;39.50;;;;;;5076836;28;20503;-77
2022/05/13 08:33:56;;;;;;;8.75;3.33;;;29.10;39.10;;;;;;5094432;28;20036;-77
2022/05/13 08:36:22;;;;;;;6.47;3.30;;;29.60;37.90;;;;;;5093701;28;20032;-78
2022/05/13 08:38:50;;;;;;;7.85;3.10;;;30.20;37.50;;;;;;5094279;28;20032;-78
2022/05/13 08:41:57;;;;;;;10.93;3.33;;;30.70;36.70;;;;;;5095129;28;20032;-73
2022/05/13 08:44:23;;;;;;;;;;;31.30;36.80;;;;;;5094482;28;20426;-73
2022/05/13 08:47:46;;;;;;;9.02;3.92;;;32.10;38.60;;;;;;5093660;28;19920;-78
2022/05/13 08:50:39;;;;;;;10.57;3.75;;;33.00;36.20;;;;;;5094899;28;20036;-78
2022/05/13 08:53:31;;;;;;;10.88;3.67;;;33.90;33.30;;;;;;5093855;28;20438;-73
2022/05/13 08:56:07;;;;;;;7.82;3.88;;;34.70;31.10;;;;;;5095151;28;20032;-78
2022/05/13 08:59:30;;;;;;;11.00;4.53;;;35.50;29.60;;;;;;5093076;28;20550;-78
2022/05/13 09:02:09;;;;;;;6.38;3.55;;;36.20;29.90;;;;;;5093010;28;20032;-78
2022/05/13 09:05:31;;;;;;;7.32;3.70;;;37.00;27.30;;;;;;5093613;28;20067;-73
2022/05/13 09:08:00;;;;;;;8.07;3.60;;;37.50;27.40;;;;;;5094851;28;20111;-73
2022/05/13 09:10:26;;;;;;;9.10;4.75;;;37.90;24.90;;;;;;5093162;28;20109;-76
2022/05/13 09:13:06;;;;;;;8.52;3.53;;;38.40;24.40;;;;;;5092654;28;20085;-76
2022/05/13 09:15:52;;;;;;;6.93;3.70;;;39.10;24.40;;;;;;5089377;28;20036;-72
2022/05/13 09:18:36;;;;;;;8.95;3.35;;;39.60;23.50;;;;;;5097813;28;20062;-73
2022/05/13 09:21:22;;;;;;;6.38;3.75;;;40.20;23.10;;;;;;5096574;28;20047;-72
2022/05/13 09:23:48;;;;;;;9.02;3.65;;;40.70;22.50;;;;;;5114635;28;20031;-72
2022/05/13 09:26:21;;;;;;;5.38;3.25;;;41.20;21.40;;;;;;5096195;28;20047;-72
2022/05/13 09:29:34;;;;;;;12.02;3.40;;;41.70;20.70;;;;;;5095715;28;20036;-75
2022/05/13 09:32:07;;;;;;;14.75;6.10;;;42.20;21.10;;;;;;5096200;28;20132;-76
2022/05/13 09:35:29;;;;;;;6.88;3.67;;;42.70;19.30;;;;;;5114850;28;20036;-73
2022/05/13 09:38:04;;;;;;;6.15;4.00;;;43.00;20.00;;;;;;5115096;28;20362;-72
2022/05/13 09:40:33;;;;;;;9.48;4.00;;;43.50;18.90;;;;;;5080303;28;20526;-73
2022/05/13 09:42:59;;;;;;;7.13;4.50;;;43.90;18.20;;;;;;5114138;28;20032;-76
2022/05/13 09:45:46;;;;;;;6.43;3.67;;;44.10;18.00;;;;;;5095992;28;20031;-76
2022/05/13 09:48:20;;;;;;;6.80;3.20;;;44.30;17.50;;;;;;5115030;28;20062;-73
2022/05/13 09:50:54;;;;;;;5.85;3.00;;;44.70;17.40;;;;;;5114117;28;20032;-73
2022/05/13 09:53:39;;;;;;;7.22;3.42;;;45.00;17.20;;;;;;5114214;28;20061;-72
2022/05/13 09:56:12;;;;;;;6.25;3.28;;;45.50;17.00;;;;;;5113978;28;20035;-75
2022/05/13 09:59:04;;;;;;;8.77;3.80;;;46.00;16.60;;;;;;5095066;28;20046;-76
2022/05/13 10:01:33;;;;;;;5.80;3.63;;;46.60;16.30;;;;;;5095619;28;20034;-72
2022/05/13 10:04:38;;;;;;;8.10;4.13;;;47.00;16.30;;;;;;5114154;28;20061;-72
2022/05/13 10:07:08;;;;;;;7.93;4.22;;;47.50;16.40;;;;;;5113946;28;20023;-75
2022/05/13 10:15:58;;;;;;;7.63;3.88;;;48.50;15.00;;;;;;5098507;28;20180;-76
2022/05/13 10:19:21;;;;;;;5.25;3.63;;;49.00;14.40;;;;;;5096581;28;20110;-75
2022/05/13 10:22:24;;;;;;;5.40;4.10;;;49.40;14.70;;;;;;5112945;28;20039;-72
2022/05/13 10:25:10;;;;;;;8.20;4.00;;;49.70;13.90;;;;;;5113653;28;20130;-72
2022/05/13 10:27:50;;;;;;;;;;;;;;;;;;;;;
2022/05/13 10:30:56;;;;;;;6.60;3.70;;;50.40;12.90;;;;;;5096680;28;20039;-72
2022/05/13 10:33:47;;;;;;;7.10;4.30;;;50.80;13.00;;;;;;5095395;28;20067;-76
2022/05/13 10:37:11;;;;;;;6.05;4.00;;;50.80;12.80;;;;;;5095187;28;20027;-72
2022/05/13 10:40:16;;;;;;;6.15;3.92;;;51.00;13.00;;;;;;5113508;28;20088;-74
2022/05/13 10:42:54;;;;;;;7.55;4.30;;;51.70;13.00;;;;;;5094400;28;20111;-72
2022/05/13 10:45:42;;;;;;;5.38;3.95;;;52.00;12.70;;;;;;5113129;28;20031;-75
2022/05/13 10:48:29;;;;;;;6.68;4.50;;;52.50;12.60;;;;;;5095225;28;20027;-75
2022/05/13 10:51:00;;;;;;;6.53;4.53;;;52.60;12.20;;;;;;5094776;28;20028;-72
2022/05/13 10:53:59;;;;;;;8.02;4.97;;;52.90;11.30;;;;;;5113575;28;20066;-75
2022/05/13 10:57:00;;;;;;;8.85;4.75;;;53.10;11.90;;;;;;5113038;28;20032;-74
2022/05/13 10:59:36;;;;;;;9.25;4.43;;;53.20;11.90;;;;;;5077274;28;20043;-72
2022/05/13 11:03:00;;;;;;;6.05;4.75;;;53.20;11.70;;;;;;5111949;28;20039;-73
2022/05/13 11:06:22;;;;;;;5.70;4.25;;;53.20;11.80;;;;;;5094560;28;20036;-75
2022/05/13 11:09:25;;;;;;;9.15;5.10;;;53.50;11.50;;;;;;5113173;28;20114;-72
2022/05/13 11:12:34;;;;;;;7.30;5.05;;;53.80;11.10;;;;;;5112867;28;20032;-73
2022/05/13 11:15:28;;;;;;;5.85;4.80;;;54.30;11.60;;;;;;5112341;28;20392;-75
2022/05/13 11:18:50;;;;;;;7.00;4.63;;;54.70;11.00;;;;;;5094572;28;20084;-73
2022/05/13 11:22:12;;;;;;;16.27;5.72;;;54.90;10.80;;;;;;5094265;28;20040;-76
2022/05/13 11:28:32;;;;;;;14.52;4.97;;;55.20;10.70;;;;;;5097645;28;20100;-72
2022/05/13 11:31:36;;;;;;;9.73;4.97;;;55.40;11.00;;;;;;5112703;28;20080;-76
2022/05/13 11:34:58;;;;;;;6.68;5.10;;;55.50;10.90;;;;;;5117185;28;20461;-75
2022/05/13 11:37:32;;;;;;;18.42;5.68;;;55.60;10.90;;;;;;5116920;28;20099;-73
2022/05/13 11:40:40;;;;;;;7.63;5.50;;;55.80;10.30;;;;;;5082330;28;20028;-75
2022/05/13 11:43:43;;;;;;;10.02;5.78;;;55.90;10.50;;;;;;5098489;28;20028;-75
2022/05/13 11:46:55;;;;;;;10.80;7.13;;;56.40;10.70;;;;;;5116587;28;20032;-73
2022/05/13 11:49:49;;;;;;;9.30;5.70;;;56.80;10.50;;;;;;5116796;28;20040;-72
2022/05/13 11:52:15;;;;;;;;;;;56.80;9.80;;;;;;5117201;28;20181;-73
2022/05/13 11:54:43;;;;;;;8.77;5.70;;;56.50;10.60;;;;;;5116688;28;19951;-76
2022/05/13 11:57:41;;;;;;;7.65;5.70;;;56.60;9.80;;;;;;5081167;28;20046;-75
2022/05/13 12:00:45;;;;;;;13.52;5.93;;;56.40;10.10;;;;;;5097254;28;20032;-72
2022/05/13 12:03:17;;;;;;;11.87;6.10;;;56.30;10.30;;;;;;5098671;28;20023;-76
2022/05/13 12:06:06;;;;;;;7.80;6.07;;;56.50;9.90;;;;;;5081070;28;20551;-73
2022/05/13 12:09:10;;;;;;;6.70;5.63;;;56.70;9.80;;;;;;5098223;28;20400;-75
2022/05/13 12:12:33;;;;;;;8.33;6.40;;;56.70;10.00;;;;;;5080746;28;20080;-72
2022/05/13 12:15:36;;;;;;;9.32;6.85;;;57.10;10.40;;;;;;5115853;28;20048;-75
2022/05/13 12:18:27;;;;;;;7.40;6.57;;;57.30;10.00;;;;;;5116622;28;20532;-73
2022/05/13 12:21:52;;;;;;;8.73;6.65;;;57.10;9.90;;;;;;5115950;28;20258;-75
2022/05/13 12:24:28;;;;;;;8.40;6.57;;;57.00;10.00;;;;;;5109882;28;20129;-75
2022/05/13 12:26:56;;;;;;;11.43;6.13;;;57.20;9.80;;;;;;5081277;28;20046;-75
2022/05/13 12:29:35;;;;;;;8.25;6.43;;;57.40;9.60;;;;;;5115184;28;20039;-75
2022/05/13 12:32:04;;;;;;;6.68;5.95;;;57.40;9.70;;;;;;5115798;28;20040;-76
2022/05/13 12:38:10;;;;;;;6.93;6.32;;;57.70;9.50;;;;;;5102919;28;20418;-73
2022/05/13 12:41:09;;;;;;;7.05;6.35;;;58.00;9.90;;;;;;5097180;28;20118;-75
2022/05/13 12:43:59;;;;;;;6.88;6.28;;;58.10;9.50;;;;;;5097561;28;20051;-76
2022/05/13 12:46:46;;;;;;;6.82;6.10;;;58.00;9.90;;;;;;5097315;28;20035;-75
2022/05/13 12:49:49;;;;;;;6.57;5.97;;;58.00;10.10;;;;;;5098046;28;20043;-76
2022/05/13 12:52:36;;;;;;;8.13;7.38;;;58.20;9.90;;;;;;5096962;28;20032;-73
2022/05/13 12:55:24;;;;;;;14.20;7.38;;;58.20;9.60;;;;;;5079659;28;20070;-73
2022/05/13 12:58:18;;;;;;;8.52;7.13;;;58.10;9.60;;;;;;5092727;28;20099;-72
2022/05/13 13:01:03;;;;;;;10.07;7.10;;;57.90;9.10;;;;;;5095233;28;20122;-73
2022/05/13 13:03:55;;;;;;;7.22;6.60;;;57.90;9.00;;;;;;5097127;28;20047;-76
2022/05/13 13:06:36;;;;;;;8.68;7.30;;;58.20;9.60;;;;;;5096862;28;20024;-74
2022/05/13 13:09:02;;;;;;;7.28;6.53;;;58.30;9.20;;;;;;5080117;28;20038;-73
2022/05/13 13:12:05;;;;;;;7.70;7.10;;;58.10;9.30;;;;;;5096623;28;20027;-73
2022/05/13 13:15:03;;;;;;;8.15;7.40;;;58.00;9.20;;;;;;5114407;28;20547;-73
2022/05/13 13:17:58;;;;;;;10.07;6.80;;;57.80;8.90;;;;;;5096620;28;20494;-75
2022/05/13 13:20:27;;;;;;;;;;;57.90;9.00;;;;;;5080081;28;20384;-72
2022/05/13 13:23:00;;;;;;;8.15;7.07;;;58.00;9.80;;;;;;5097020;28;19920;-75
2022/05/13 13:25:31;;;;;;;10.20;7.47;;;58.00;9.30;;;;;;5079394;28;20048;-72
2022/05/13 13:28:36;;;;;;;10.45;7.78;;;58.00;9.60;;;;;;5096913;28;20038;-73
2022/05/13 13:31:41;;;;;;;8.00;6.68;;;58.00;9.60;;;;;;5095588;28;20077;-75
2022/05/13 13:35:01;;;;;;;8.98;6.30;;;57.60;9.40;;;;;;5096903;28;20039;-72
2022/05/13 13:37:37;;;;;;;7.80;6.00;;;57.20;9.60;;;;;;5114374;28;20028;-75
2022/05/13 13:41:00;;;;;;;6.40;5.80;;;57.00;9.10;;;;;;5114724;28;20107;-72
2022/05/13 13:43:30;;;;;;;8.15;5.88;;;56.80;9.20;;;;;;5096357;28;20040;-73
2022/05/13 13:46:22;;;;;;;11.32;5.40;;;56.70;9.10;;;;;;5095188;28;20393;-75
2022/05/13 13:49:13;;;;;;;7.82;5.82;;;56.40;9.50;;;;;;5079205;28;20055;-73
2022/05/13 13:52:03;;;;;;;10.80;5.63;;;56.20;9.50;;;;;;5095955;28;20032;-75
2022/05/13 13:55:25;;;;;;;8.23;6.10;;;55.90;9.40;;;;;;5078919;28;20488;-72
2022/05/13 13:58:47;;;;;;;8.90;4.88;;;55.80;9.60;;;;;;5114682;28;20046;-73
2022/05/13 14:01:33;;;;;;;10.43;5.20;;;55.30;9.80;;;;;;5113368;28;20036;-75
2022/05/13 14:04:40;;;;;;;7.65;5.53;;;55.40;9.70;;;;;;5095953;28;20053;-73
2022/05/13 14:07:09;;;;;;;6.97;4.60;;;54.90;9.30;;;;;;5095842;28;20028;-73
2022/05/13 14:09:40;;;;;;;12.93;4.63;;;54.40;9.60;;;;;;5095943;28;20115;-72
2022/05/13 14:12:15;;;;;;;6.05;4.55;;;54.10;9.90;;;;;;5114105;28;20108;-74
2022/05/13 14:14:59;;;;;;;8.60;4.85;;;53.80;9.60;;;;;;5095158;28;20114;-72